Time;durP1;ratioP1;P1;durP2;ratioP2;P2;SDS_P1;SDS_P2;PMS_P1;PMS_P2;Temp;Humidity;BMP_temperature;BMP_pressure;BME280_temperature;BME280_humidity;BME280_pressure;Samples;Min_cycle;Max_cycle;Signal;HPM_P1;HPM_P2
2022/05/03 00:01:47;;;;;;;;;26.75;24.00;;;;;15.16;35.38;101268.19;5052070;28;45296;-60
2022/05/03 00:04:16;;;;;;;;;25.75;23.75;;;;;15.12;35.22;101256.78;5062296;28;45474;-60
2022/05/03 00:07:04;;;;;;;;;29.25;24.50;;;;;15.10;35.59;101258.59;5062189;28;45360;-60
2022/05/03 00:09:48;;;;;;;;;30.00;26.75;;;;;15.05;35.30;101260.50;5062467;28;45273;-60
2022/05/03 00:12:18;;;;;;;;;30.25;25.75;;;;;15.03;35.88;101254.34;5062152;28;45329;-60
2022/05/03 00:14:47;;;;;;;;;28.50;27.75;;;;;14.99;35.41;101253.56;5062421;28;46296;-60
2022/05/03 00:17:15;;;;;;;;;32.25;29.50;;;;;14.98;35.58;101248.31;5044083;28;45379;-60
2022/05/03 00:19:43;;;;;;;;;22.50;21.00;;;;;14.94;36.03;101247.50;5062532;28;45324;-60
2022/05/03 00:22:12;;;;;;;;;25.75;25.50;;;;;14.92;35.61;101244.06;5061727;28;45549;-60
2022/05/03 00:24:38;;;;;;;;;27.50;23.00;;;;;14.91;35.92;101239.66;5062096;28;45331;-59
2022/05/03 00:27:04;;;;;;;;;25.75;23.25;;;;;14.87;35.51;101244.16;5061927;28;45345;-59
2022/05/03 00:29:33;;;;;;;;;23.00;22.50;;;;;14.85;35.93;101243.31;5062225;28;45446;-60
2022/05/03 00:32:03;;;;;;;;;29.00;24.50;;;;;14.83;35.97;101247.78;5042801;28;45532;-60
2022/05/03 00:34:31;;;;;;;;;26.75;21.75;;;;;14.79;35.76;101246.09;5061733;28;45381;-60
2022/05/03 00:36:56;;;;;;;;;27.75;25.50;;;;;14.78;35.79;101241.75;5061932;28;45261;-60
2022/05/03 00:39:22;;;;;;;;;30.50;26.50;;;;;14.72;35.98;101239.25;5061853;28;45486;-60
2022/05/03 00:41:50;;;;;;;;;25.25;23.25;;;;;14.73;36.14;101243.59;5062048;28;45484;-60
2022/05/03 00:44:55;;;;;;;;;31.00;30.25;;;;;14.71;35.95;101238.34;5060587;28;46209;-60
2022/05/03 00:47:46;;;;;;;;;36.00;28.75;;;;;14.66;36.36;101239.38;5061844;28;45302;-59
2022/05/03 00:50:28;;;;;;;;;30.25;26.50;;;;;14.61;36.24;101232.38;5061669;28;45358;-59
2022/05/03 00:53:01;;;;;;;;;29.75;27.25;;;;;14.57;36.39;101232.50;5061399;28;45531;-59
2022/05/03 00:55:54;;;;;;;;;31.00;29.25;;;;;14.55;36.63;101231.66;5061658;28;46223;-59
2022/05/03 00:58:57;;;;;;;;;21.00;21.00;;;;;14.52;35.92;101234.38;5041507;28;45306;-59
2022/05/03 01:02:02;;;;;;;;;27.25;25.25;;;;;14.46;36.50;101223.03;5050398;28;45294;-60
2022/05/03 01:04:46;;;;;;;;;30.00;27.25;;;;;14.43;36.25;101232.81;5055094;28;45577;-59
2022/05/03 01:07:34;;;;;;;;;33.25;29.75;;;;;14.40;36.48;101225.81;5043052;28;47216;-60
2022/05/03 01:10:08;;;;;;;;;27.75;27.00;;;;;14.38;36.58;101234.69;5061453;28;45192;-60
2022/05/03 01:12:58;;;;;;;;;28.75;25.75;;;;;14.34;36.55;101233.88;5043316;28;45499;-60
2022/05/03 01:15:29;;;;;;;;;28.00;24.25;;;;;14.30;36.51;101230.44;5061144;28;45328;-60
2022/05/03 01:18:11;;;;;;;;;28.75;25.00;;;;;14.28;36.27;101237.53;5061427;28;45272;-60
2022/05/03 01:20:51;;;;;;;;;26.75;26.75;;;;;14.24;36.73;101233.22;5061469;28;45448;-59
2022/05/03 01:23:38;;;;;;;;;30.25;25.50;;;;;14.21;36.45;101233.25;5061350;28;45533;-59
2022/05/03 01:26:30;;;;;;;;;27.25;24.75;;;;;14.18;36.79;101228.06;5061029;28;45526;-59
2022/05/03 01:29:31;;;;;;;;;25.00;22.75;;;;;14.15;36.78;101225.50;5061294;28;46380;-59
2022/05/03 01:32:09;;;;;;;;;24.50;22.00;;;;;14.13;36.89;101227.28;5042989;28;45353;-60
2022/05/03 01:34:36;;;;;;;;;28.00;25.50;;;;;14.07;36.64;101214.19;5061419;28;45264;-60
2022/05/03 01:37:05;;;;;;;;;24.00;23.00;;;;;14.08;36.78;101222.09;5060761;28;45420;-60
2022/05/03 01:40:01;;;;;;;;;28.00;26.25;;;;;14.07;36.71;101227.41;5060801;28;45246;-60
2022/05/03 01:42:35;;;;;;;;;24.25;21.25;;;;;14.05;37.02;101222.16;5060492;28;45417;-60
2022/05/03 01:45:02;;;;;;;;;25.75;25.75;;;;;14.03;36.89;101213.38;5059789;28;45464;-60
2022/05/03 01:48:14;;;;;;;;;23.75;22.00;;;;;14.01;37.11;101217.81;5060785;28;45191;-60
2022/05/03 01:50:49;;;;;;;;;24.75;24.00;;;;;13.95;36.90;101210.06;4978329;28;47336;-60
2022/05/03 01:53:33;;;;;;;;;27.00;26.00;;;;;13.96;36.95;101215.31;4959686;28;45420;-60
2022/05/03 01:56:22;;;;;;;;;27.00;25.50;;;;;13.94;37.25;101216.25;5016242;28;45411;-59
2022/05/03 01:58:53;;;;;;;;;28.00;24.00;;;;;13.92;36.96;101211.00;5046406;28;45421;-59
2022/05/03 02:01:34;;;;;;;;;26.75;24.75;;;;;13.89;37.19;101208.41;5040346;28;46313;-60
2022/05/03 02:04:22;;;;;;;;;30.75;26.25;;;;;13.87;37.35;101196.97;5040280;28;45234;-60
2022/05/03 02:07:02;;;;;;;;;30.00;25.00;;;;;13.85;37.06;101195.28;5040283;28;45318;-60
2022/05/03 02:10:05;;;;;;;;;32.00;24.25;;;;;13.82;37.03;101188.28;5048769;28;45275;-60
2022/05/03 02:12:30;;;;;;;;;25.75;22.75;;;;;13.80;37.14;101204.16;5060435;28;45373;-60
2022/05/03 02:15:11;;;;;;;;;29.25;26.75;;;;;13.77;37.45;101198.97;5060481;28;45312;-60
2022/05/03 02:17:50;;;;;;;;;27.00;26.25;;;;;13.74;37.11;101196.38;5060651;28;45324;-61
2022/05/03 02:20:33;;;;;;;;;28.50;25.00;;;;;13.74;36.95;101199.00;5060414;28;45336;-60
2022/05/03 02:23:27;;;;;;;;;32.00;25.75;;;;;13.71;37.23;101198.19;5059880;28;45412;-61
2022/05/03 02:26:12;;;;;;;;;28.25;26.75;;;;;13.68;37.49;101195.63;5060142;28;45356;-61
2022/05/03 02:29:05;;;;;;;;;29.00;26.00;;;;;13.67;37.47;101209.72;5060239;28;45332;-61
2022/05/03 02:31:54;;;;;;;;;27.50;26.50;;;;;13.65;37.69;101204.47;5060102;28;45238;-61
2022/05/03 02:34:59;;;;;;;;;25.50;22.75;;;;;13.62;37.36;101210.69;5052442;28;46103;-61
2022/05/03 02:37:33;;;;;;;;;31.50;26.25;;;;;13.60;37.44;101209.84;5006147;28;45391;-61
2022/05/03 02:40:00;;;;;;;;;31.25;25.75;;;;;13.58;37.63;101206.34;5040548;28;45384;-61
2022/05/03 02:42:26;;;;;;;;;24.00;21.25;;;;;13.57;37.48;101209.03;5059755;28;45340;-61
2022/05/03 02:45:00;;;;;;;;;26.00;25.75;;;;;13.54;37.49;101207.31;5058468;28;45375;-61
2022/05/03 02:47:47;;;;;;;;;24.75;24.25;;;;;13.53;37.57;101213.50;5059773;28;45328;-61
2022/05/03 02:50:14;;;;;;;;;24.00;23.25;;;;;13.49;37.76;101206.53;5042020;28;45287;-61
2022/05/03 02:52:58;;;;;;;;;24.00;23.50;;;;;13.48;37.60;101210.06;5041478;28;45504;-61
2022/05/03 02:55:39;;;;;;;;;25.00;23.75;;;;;13.46;37.51;101212.75;5058960;28;45299;-61
2022/05/03 02:58:10;;;;;;;;;21.50;21.25;;;;;13.46;37.80;101214.53;5051556;28;45337;-61
2022/05/03 03:04:07;;;;;;;;;27.00;24.00;;;;;13.45;37.66;101212.78;5039434;28;45300;-61
2022/05/03 03:06:37;;;;;;;;;24.25;22.25;;;;;13.44;37.72;101206.63;5039132;28;46348;-61
2022/05/03 03:09:03;;;;;;;;;23.75;23.25;;;;;13.43;38.01;101206.66;5039304;28;45403;-61
2022/05/03 03:11:40;;;;;;;;;29.00;25.50;;;;;13.46;38.07;101211.88;5039678;28;45353;-61
2022/05/03 03:14:19;;;;;;;;;22.50;21.75;;;;;13.47;37.79;101206.56;5037977;28;46557;-61
2022/05/03 03:16:52;;;;;;;;;27.00;24.75;;;;;13.48;38.18;101205.69;5039295;28;47340;-61
2022/05/03 03:19:41;;;;;;;;;22.50;21.00;;;;;13.49;38.10;101207.41;5039418;28;45253;-61
2022/05/03 03:22:12;;;;;;;;;29.25;23.50;;;;;13.50;38.06;101200.38;5038983;28;45290;-61
2022/05/03 03:24:42;;;;;;;;;24.00;23.50;;;;;13.50;38.10;101197.72;5039210;28;45475;-61
2022/05/03 03:27:10;;;;;;;;;25.00;23.50;;;;;13.52;37.91;101200.31;5025042;28;45381;-61
2022/05/03 03:29:38;;;;;;;;;28.50;25.50;;;;;13.54;38.20;101202.03;5039132;28;45396;-61
2022/05/03 03:32:06;;;;;;;;;30.75;27.00;;;;;13.53;38.24;101199.44;5039149;28;45350;-61
2022/05/03 03:34:32;;;;;;;;;25.75;24.00;;;;;13.54;38.05;101203.81;5021123;28;45426;-61
2022/05/03 03:37:01;;;;;;;;;25.00;20.75;;;;;13.54;38.30;101202.03;5038902;28;45237;-61
2022/05/03 03:39:31;;;;;;;;;23.75;21.50;;;;;13.54;38.06;101202.03;5038979;28;45476;-61
2022/05/03 03:42:05;;;;;;;;;29.75;27.50;;;;;13.54;37.99;101198.53;5039031;28;45391;-61
2022/05/03 03:44:30;;;;;;;;;29.25;26.50;;;;;13.53;37.84;101202.94;5024118;28;45431;-61
2022/05/03 03:46:57;;;;;;;;;19.75;19.25;;;;;13.53;38.60;101200.28;5059262;28;45914;-61
2022/05/03 03:49:22;;;;;;;;;22.50;21.75;;;;;13.51;38.17;101199.47;5041304;28;45458;-61
2022/05/03 03:51:50;;;;;;;;;26.25;24.00;;;;;13.54;38.00;101201.19;5040821;28;45385;-61
2022/05/03 03:54:16;;;;;;;;;29.00;27.75;;;;;13.54;37.93;101193.25;5059025;28;45333;-61
2022/05/03 03:56:44;;;;;;;;;31.50;27.25;;;;;13.55;38.32;101200.28;5059010;28;45331;-61
2022/05/03 03:59:10;;;;;;;;;52.25;43.75;;;;;13.55;38.51;101198.50;5023582;28;45293;-60
2022/05/03 04:01:36;;;;;;;;;27.75;23.25;;;;;13.56;38.25;101204.63;5039179;28;45330;-61
2022/05/03 04:04:03;;;;;;;;;29.75;27.25;;;;;13.55;38.45;101195.88;5052413;28;45595;-61
2022/05/03 04:06:28;;;;;;;;;24.00;24.00;;;;;13.56;38.37;101200.25;5050819;28;45372;-61
2022/05/03 04:08:54;;;;;;;;;30.50;26.25;;;;;13.57;38.15;101202.00;5042170;28;45245;-61
2022/05/03 04:11:19;;;;;;;;;24.75;21.25;;;;;13.58;38.23;101200.22;5042369;28;45337;-60
2022/05/03 04:13:45;;;;;;;;;24.50;23.00;;;;;13.57;38.43;101199.34;5042247;28;45506;-61
2022/05/03 04:16:11;;;;;;;;;22.75;20.50;;;;;13.57;38.59;101196.72;5031545;28;46298;-60
2022/05/03 04:18:46;;;;;;;;;21.25;21.25;;;;;13.58;38.32;101203.72;5038235;28;45284;-60
2022/05/03 04:21:16;;;;;;;;;27.25;25.25;;;;;13.59;38.32;101202.81;5037238;28;45331;-61
2022/05/03 04:23:42;;;;;;;;;24.75;24.25;;;;;13.59;38.55;101202.81;5043889;28;45335;-60
2022/05/03 04:26:09;;;;;;;;;21.25;21.25;;;;;13.58;38.64;101201.06;5061990;28;45319;-61
2022/05/03 04:28:35;;;;;;;;;26.50;23.75;;;;;13.60;38.46;101196.63;5043921;28;45349;-61
2022/05/03 04:31:00;;;;;;;;;26.00;22.25;;;;;13.60;38.38;101199.28;5062031;28;45325;-60
2022/05/03 04:33:26;;;;;;;;;23.25;19.50;;;;;13.57;38.66;101202.00;5043797;28;45593;-61
2022/05/03 04:35:51;;;;;;;;;28.25;25.50;;;;;13.60;38.58;101199.28;5061752;28;45494;-60
2022/05/03 04:38:16;;;;;;;;;28.75;25.50;;;;;13.61;38.19;101205.41;5043712;28;45258;-60
2022/05/03 04:40:41;;;;;;;;;26.50;21.00;;;;;13.58;38.54;101211.63;5062037;28;45314;-60
2022/05/03 04:43:07;;;;;;;;;24.75;21.75;;;;;13.61;38.68;101211.59;5061802;28;45348;-60
2022/05/03 04:45:32;;;;;;;;;25.50;23.00;;;;;13.60;38.57;101209.84;5060584;28;45591;-60
2022/05/03 04:47:57;;;;;;;;;25.50;22.50;;;;;13.60;38.31;101206.34;5061747;28;45253;-61
2022/05/03 04:50:23;;;;;;;;;34.00;29.50;;;;;13.61;38.66;101202.78;5061925;28;45200;-61
2022/05/03 04:52:48;;;;;;;;;25.50;23.75;;;;;13.61;38.44;101201.03;5061504;28;45154;-61
2022/05/03 04:55:14;;;;;;;;;30.75;25.50;;;;;13.60;38.41;101201.06;5043378;28;46228;-60
2022/05/03 04:57:39;;;;;;;;;24.25;21.25;;;;;13.60;38.51;101203.72;5057061;28;45241;-60
2022/05/03 05:00:05;;;;;;;;;28.25;26.75;;;;;13.62;38.42;101200.13;5041714;28;45516;-61
2022/05/03 05:02:32;;;;;;;;;27.25;25.00;;;;;13.59;38.54;101201.97;5041349;28;45142;-60
2022/05/03 05:04:58;;;;;;;;;28.00;26.50;;;;;13.60;38.50;101201.91;5041396;28;46147;-60
2022/05/03 05:07:23;;;;;;;;;32.50;28.00;;;;;13.63;38.87;101203.63;5041006;28;45416;-61
2022/05/03 05:12:32;;;;;;;;;28.50;25.25;;;;;13.62;38.76;101215.09;5048169;28;45321;-60
2022/05/03 05:14:58;;;;;;;;;29.75;26.25;;;;;13.62;38.71;101217.72;5061422;28;45463;-60
2022/05/03 05:17:23;;;;;;;;;25.50;24.75;;;;;13.62;38.87;101221.25;5042857;28;45416;-60
2022/05/03 05:19:48;;;;;;;;;25.25;22.25;;;;;13.62;38.58;101218.63;5061574;28;45399;-60
2022/05/03 05:22:14;;;;;;;;;31.25;30.00;;;;;13.62;38.88;101217.72;5042881;28;45573;-60
2022/05/03 05:24:39;;;;;;;;;21.50;20.50;;;;;13.61;38.67;101221.25;5061188;28;46054;-61
2022/05/03 05:27:05;;;;;;;;;25.75;24.25;;;;;13.59;38.58;101225.72;5043292;28;45470;-60
2022/05/03 05:29:31;;;;;;;;;24.50;23.25;;;;;13.57;38.95;101224.88;5061496;28;45371;-60
2022/05/03 05:31:56;;;;;;;;;25.75;24.50;;;;;13.59;38.74;101234.50;5043067;28;45532;-60
2022/05/03 05:34:21;;;;;;;;;27.00;25.75;;;;;13.58;38.81;101238.03;5043080;28;45991;-60
2022/05/03 05:36:47;;;;;;;;;28.25;25.00;;;;;13.59;38.81;101244.22;5061056;28;45806;-62
2022/05/03 05:39:12;;;;;;;;;28.00;25.50;;;;;13.58;38.73;101238.03;5061249;28;45166;-60
2022/05/03 05:41:37;;;;;;;;;28.25;24.00;;;;;13.60;38.94;101244.16;5043146;28;45491;-60
2022/05/03 05:44:04;;;;;;;;;29.50;26.25;;;;;13.61;38.54;101243.28;5060223;28;46218;-60
2022/05/03 05:46:30;;;;;;;;;32.00;29.50;;;;;13.62;38.78;101239.75;5060697;28;45299;-61
2022/05/03 05:48:56;;;;;;;;;28.25;27.50;;;;;13.65;38.95;101244.09;5043329;28;45284;-60
2022/05/03 05:51:21;;;;;;;;;24.50;21.50;;;;;13.67;39.07;101249.34;5060516;28;45465;-60
2022/05/03 05:53:47;;;;;;;;;32.00;27.00;;;;;13.67;39.16;101246.69;5060909;28;46115;-60
2022/05/03 05:56:12;;;;;;;;;34.25;27.75;;;;;13.67;38.79;101239.63;5060592;28;45352;-60
2022/05/03 05:58:37;;;;;;;;;30.75;28.75;;;;;13.69;38.78;101244.91;5030348;28;45303;-60
2022/05/03 06:01:03;;;;;;;;;30.75;24.00;;;;;13.70;38.71;101239.59;5040588;28;45651;-60
2022/05/03 06:03:29;;;;;;;;;25.75;23.00;;;;;13.73;38.77;101247.44;5044623;28;45408;-60
2022/05/03 06:05:59;;;;;;;;;26.50;22.25;;;;;13.73;38.89;101252.72;5040977;28;45363;-60
2022/05/03 06:08:25;;;;;;;;;28.50;25.75;;;;;13.77;38.92;101248.25;5040907;28;45333;-60
2022/05/03 06:10:50;;;;;;;;;29.25;25.75;;;;;13.77;38.91;101245.63;5022171;28;45686;-60
2022/05/03 06:13:16;;;;;;;;;24.75;22.75;;;;;13.80;39.01;101253.50;5040538;28;46460;-60
2022/05/03 06:15:42;;;;;;;;;29.00;25.75;;;;;13.85;38.91;101253.38;5040510;28;45344;-60
2022/05/03 06:18:09;;;;;;;;;22.25;20.50;;;;;13.87;39.27;101262.16;5045540;28;45325;-61
2022/05/03 06:20:36;;;;;;;;;26.75;23.00;;;;;13.87;39.14;101255.09;5040317;28;45270;-61
2022/05/03 06:23:02;;;;;;;;;26.00;25.50;;;;;13.92;38.98;101266.47;5040113;28;45360;-61
2022/05/03 06:25:28;;;;;;;;;29.75;25.00;;;;;13.95;38.99;101262.91;5040294;28;45315;-61
2022/05/03 06:27:53;;;;;;;;;24.75;23.75;;;;;13.97;39.29;101259.31;5039978;28;45369;-61
2022/05/03 06:30:18;;;;;;;;;23.25;20.75;;;;;14.01;38.93;101259.25;5039827;28;45175;-61
2022/05/03 06:32:45;;;;;;;;;33.25;26.25;;;;;14.00;39.13;101261.03;5040005;28;45266;-61
2022/05/03 06:35:12;;;;;;;;;31.25;26.00;;;;;14.03;39.20;101260.94;5040083;28;45412;-61
2022/05/03 06:37:38;;;;;;;;;28.75;24.50;;;;;14.05;38.90;101260.91;5032641;28;45330;-61
2022/05/03 06:40:08;;;;;;;;;32.50;31.25;;;;;14.10;39.47;101266.97;5040093;28;45360;-61
2022/05/03 06:42:38;;;;;;;;;31.50;25.50;;;;;14.12;38.98;101270.47;5039814;28;45219;-61
2022/05/03 06:45:06;;;;;;;;;28.50;24.50;;;;;14.13;38.98;101267.78;5047879;28;45392;-61
2022/05/03 06:47:31;;;;;;;;;25.75;23.00;;;;;14.16;39.30;101272.13;5060162;28;45326;-61
2022/05/03 06:49:56;;;;;;;;;28.00;26.25;;;;;14.18;38.99;101272.13;5060069;28;45245;-61
2022/05/03 06:52:23;;;;;;;;;29.00;27.50;;;;;14.18;39.30;101272.97;5059889;28;45392;-61
2022/05/03 06:54:49;;;;;;;;;30.00;26.75;;;;;14.22;39.16;101268.50;5060327;28;45278;-60
2022/05/03 06:57:14;;;;;;;;;31.50;29.75;;;;;14.24;39.27;101275.50;5058970;28;45271;-61
2022/05/03 06:59:40;;;;;;;;;28.75;26.00;;;;;14.24;39.02;101270.22;5040064;28;45191;-61
2022/05/03 07:02:06;;;;;;;;;25.75;21.25;;;;;14.30;39.22;101270.09;5039759;28;45251;-61
2022/05/03 07:04:31;;;;;;;;;32.00;27.50;;;;;14.30;39.22;101269.19;5039774;28;45382;-61
2022/05/03 07:06:56;;;;;;;;;26.75;24.25;;;;;14.38;38.99;101277.00;5039442;28;45705;-61
2022/05/03 07:09:22;;;;;;;;;33.50;30.75;;;;;14.42;38.97;101273.38;5025668;28;45506;-61
2022/05/03 07:11:47;;;;;;;;;32.00;29.75;;;;;14.44;39.05;101274.22;5039538;28;46263;-61
2022/05/03 07:14:12;;;;;;;;;28.25;27.25;;;;;14.45;39.14;101270.66;5039680;28;45434;-61
2022/05/03 07:16:38;;;;;;;;;22.75;21.50;;;;;14.47;38.88;101277.63;5039738;28;45317;-61
2022/05/03 07:24:31;;;;;;;;;22.50;21.25;;;;;14.59;39.04;101292.38;5039328;28;45229;-61
2022/05/03 07:26:56;;;;;;;;;29.50;27.25;;;;;14.66;39.64;101300.22;5039535;28;45340;-61
2022/05/03 07:29:22;;;;;;;;;38.75;32.50;;;;;14.73;39.54;101299.16;5039484;28;45606;-61
2022/05/03 07:31:47;;;;;;;;;20.75;18.50;;;;;14.80;39.63;101298.13;5039203;28;46260;-61
2022/05/03 07:34:12;;;;;;;;;33.00;28.50;;;;;14.87;39.02;101294.44;5039583;28;45309;-61
2022/05/03 07:36:41;;;;;;;;;27.00;24.00;;;;;14.95;39.03;101295.13;5039210;28;45411;-61
2022/05/03 07:39:06;;;;;;;;;32.75;26.75;;;;;15.03;39.02;101289.66;5029548;28;45262;-61
2022/05/03 07:41:32;;;;;;;;;30.50;26.00;;;;;15.12;39.37;101296.50;5041905;28;46499;-61
2022/05/03 07:43:57;;;;;;;;;31.50;29.00;;;;;15.20;39.25;101285.72;5042783;28;45241;-61
2022/05/03 07:46:22;;;;;;;;;25.25;23.75;;;;;15.25;39.14;101295.28;5061477;28;45317;-60
2022/05/03 07:48:48;;;;;;;;;28.25;25.25;;;;;15.31;38.91;101294.25;5063011;28;45296;-61
2022/05/03 07:51:14;;;;;;;;;31.50;28.25;;;;;15.37;38.91;101290.56;5062340;28;45229;-61
2022/05/03 07:53:40;;;;;;;;;28.25;25.50;;;;;15.42;38.89;101289.56;5062827;28;45307;-61
2022/05/03 07:56:06;;;;;;;;;26.00;25.75;;;;;15.43;38.84;101285.13;5062520;28;45225;-61
2022/05/03 07:58:31;;;;;;;;;27.75;25.00;;;;;15.49;38.67;101295.56;5041314;28;45658;-61
2022/05/03 08:00:57;;;;;;;;;24.50;24.25;;;;;15.53;39.36;101296.34;5042405;28;46209;-61
2022/05/03 08:03:22;;;;;;;;;23.50;22.25;;;;;15.54;38.96;101295.44;5042520;28;45333;-61
2022/05/03 08:05:48;;;;;;;;;26.50;24.00;;;;;15.58;38.85;101279.44;5042292;28;45301;-61
2022/05/03 08:08:14;;;;;;;;;26.25;26.00;;;;;15.66;39.06;101292.47;5042625;28;45318;-61
2022/05/03 08:10:39;;;;;;;;;23.75;21.25;;;;;15.70;38.77;101296.78;5042046;28;46263;-61
2022/05/03 08:13:05;;;;;;;;;27.75;25.25;;;;;15.72;38.56;101289.66;5042282;28;45329;-61
2022/05/03 08:15:30;;;;;;;;;35.25;30.25;;;;;15.81;38.80;101290.31;5042398;28;45234;-61
2022/05/03 08:17:55;;;;;;;;;26.50;24.25;;;;;15.85;39.11;101297.31;5053575;28;45310;-61
2022/05/03 08:20:21;;;;;;;;;23.00;23.00;;;;;15.89;38.84;101289.22;5044586;28;46250;-61
2022/05/03 08:22:46;;;;;;;;;27.25;22.25;;;;;15.95;38.78;101292.63;5042103;28;45478;-61
2022/05/03 08:25:12;;;;;;;;;23.00;20.50;;;;;16.00;38.69;101296.88;5038471;28;45269;-61
2022/05/03 08:27:40;;;;;;;;;22.50;21.50;;;;;16.09;38.64;101293.13;5042261;28;45131;-61
2022/05/03 08:30:07;;;;;;;;;24.25;22.00;;;;;16.15;38.69;101287.63;5042039;28;47109;-61
2022/05/03 08:32:33;;;;;;;;;27.00;22.75;;;;;16.16;38.56;101277.88;5041862;28;45319;-61
2022/05/03 08:34:58;;;;;;;;;33.00;28.50;;;;;16.31;38.83;101296.00;5042037;28;45250;-61
2022/05/03 08:42:52;;;;;;;;;29.00;24.00;;;;;16.50;38.92;101296.34;5061767;28;45420;-61
2022/05/03 08:45:19;;;;;;;;;27.75;24.50;;;;;16.58;38.67;101296.09;5060805;28;45546;-61
2022/05/03 08:47:47;;;;;;;;;27.25;22.75;;;;;16.64;38.76;101297.69;5061834;28;45329;-61
2022/05/03 08:50:13;;;;;;;;;18.75;17.75;;;;;16.73;38.61;101303.59;5043668;28;46271;-61
2022/05/03 08:52:46;;;;;;;;;23.25;22.25;;;;;16.81;38.45;101295.38;5060648;28;45159;-61
2022/05/03 08:55:12;;;;;;;;;22.75;20.75;;;;;16.89;38.75;101293.34;5061784;28;45332;-61
2022/05/03 08:57:37;;;;;;;;;24.50;21.25;;;;;16.99;38.77;101299.28;5043558;28;45257;-61
2022/05/03 09:00:05;;;;;;;;;28.00;24.75;;;;;17.08;38.42;101302.53;5061731;28;46178;-61
2022/05/03 09:02:32;;;;;;;;;20.50;17.75;;;;;17.15;38.59;101299.63;5061637;28;45273;-62
2022/05/03 09:04:57;;;;;;;;;28.50;24.00;;;;;17.22;38.19;101298.50;5061755;28;45383;-62
2022/05/03 09:07:25;;;;;;;;;22.50;20.75;;;;;17.34;38.24;101301.69;5061402;28;45242;-62
2022/05/03 09:09:52;;;;;;;;;19.25;17.25;;;;;17.43;38.34;101301.34;5043347;28;47207;-62
2022/05/03 09:12:21;;;;;;;;;27.50;24.50;;;;;17.54;38.35;101306.31;5043677;28;45440;-62
2022/05/03 09:14:46;;;;;;;;;20.50;19.25;;;;;17.61;38.34;101294.56;5061677;28;45174;-62
2022/05/03 09:17:11;;;;;;;;;22.25;20.50;;;;;17.75;38.23;101296.72;5061313;28;45289;-61
2022/05/03 09:19:37;;;;;;;;;21.00;16.25;;;;;17.84;38.13;101299.06;5043404;28;48186;-61
2022/05/03 09:24:58;;;;;;;;;18.00;17.75;;;;;18.07;38.35;101294.72;5046286;28;45368;-61
2022/05/03 09:27:25;;;;;;;;;21.75;17.50;;;;;18.15;37.96;101295.31;5043119;28;45670;-61
2022/05/03 09:29:59;;;;;;;;;23.25;20.00;;;;;18.26;37.97;101294.03;5061077;28;46344;-61
2022/05/03 09:32:42;;;;;;;;;26.00;22.50;;;;;18.37;37.83;101301.63;5061141;28;45316;-61
2022/05/03 09:35:33;;;;;;;;;16.25;14.25;;;;;18.46;37.89;101299.47;5043092;28;45359;-61
2022/05/03 09:38:04;;;;;;;;;18.00;18.00;;;;;18.51;37.42;101291.31;5061273;28;45325;-61
2022/05/03 09:40:35;;;;;;;;;16.00;15.25;;;;;18.63;37.47;101296.16;5060872;28;46615;-61
2022/05/03 09:43:01;;;;;;;;;18.25;15.50;;;;;18.72;37.48;101294.06;5042835;28;45329;-60
2022/05/03 09:45:26;;;;;;;;;17.00;16.50;;;;;18.82;37.48;101293.63;5060052;28;45376;-61
2022/05/03 09:47:55;;;;;;;;;17.25;17.00;;;;;18.94;37.09;101291.44;5060972;28;45281;-61
2022/05/03 09:50:28;;;;;;;;;15.50;13.50;;;;;19.07;37.21;101287.34;5060931;28;45332;-61
2022/05/03 09:52:55;;;;;;;;;18.75;16.50;;;;;19.17;37.13;101283.38;5042637;28;45341;-61
2022/05/03 09:55:32;;;;;;;;;18.75;16.75;;;;;19.35;36.78;101286.19;5042861;28;45364;-60
2022/05/03 09:58:05;;;;;;;;;17.00;17.00;;;;;19.48;36.84;101292.75;5053912;28;45497;-61
2022/05/03 10:00:35;;;;;;;;;19.25;17.25;;;;;19.61;36.87;101292.22;5040356;28;46300;-61
2022/05/03 10:03:03;;;;;;;;;16.00;15.00;;;;;19.73;36.88;101290.81;5040366;28;45314;-61
2022/05/03 10:05:29;;;;;;;;;18.50;18.50;;;;;19.85;36.42;101286.75;5040469;28;45328;-61
2022/05/03 10:07:55;;;;;;;;;20.25;16.00;;;;;19.95;36.32;101280.94;5027963;28;45404;-61
2022/05/03 10:10:22;;;;;;;;;17.75;17.00;;;;;20.09;36.25;101295.47;5040458;28;46027;-61
2022/05/03 10:12:50;;;;;;;;;18.50;16.75;;;;;20.21;36.53;101286.03;5040525;28;45312;-61
2022/05/03 10:20:57;;;;;;;;;18.75;16.50;;;;;20.69;35.81;101276.66;5040157;28;45393;-61
2022/05/03 10:23:25;;;;;;;;;20.75;17.50;;;;;20.89;36.29;101278.38;5039989;28;45417;-61
2022/05/03 10:25:54;;;;;;;;;22.75;18.75;;;;;21.15;36.52;101280.69;5040275;28;45378;-61
2022/05/03 10:28:20;;;;;;;;;20.50;20.00;;;;;21.43;35.98;101273.00;5040210;28;45606;-61
2022/05/03 10:31:04;;;;;;;;;20.00;18.25;;;;;21.77;36.33;101280.25;5040182;28;46208;-62
2022/05/03 10:33:29;;;;;;;;;20.00;15.25;;;;;22.06;36.03;101273.31;5040059;28;45285;-63
2022/05/03 10:35:55;;;;;;;;;16.50;15.25;;;;;22.35;36.06;101268.19;5040043;28;45298;-61
2022/05/03 10:38:38;;;;;;;;;13.50;11.75;;;;;22.65;35.45;101276.34;5040271;28;45587;-62
2022/05/03 10:41:05;;;;;;;;;17.75;16.50;;;;;23.04;35.92;101274.13;5039740;28;45385;-61
2022/05/03 10:43:33;;;;;;;;;16.75;15.25;;;;;23.46;36.04;101272.59;5039878;28;45209;-60
2022/05/03 10:46:12;;;;;;;;;17.75;17.75;;;;;23.97;35.68;101272.16;5055435;28;45308;-61
2022/05/03 10:48:43;;;;;;;;;17.75;14.75;;;;;24.48;35.70;101265.44;5060173;28;45229;-61
2022/05/03 10:51:09;;;;;;;;;16.25;16.25;;;;;25.02;35.81;101275.34;5041332;28;47092;-61
2022/05/03 10:53:37;;;;;;;;;17.75;14.75;;;;;25.54;35.68;101268.28;5060024;28;45327;-62
2022/05/03 10:56:18;;;;;;;;;19.00;17.50;;;;;26.11;34.85;101261.63;5059912;28;45163;-62
2022/05/03 10:59:10;;;;;;;;;17.00;17.00;;;;;26.72;34.67;101266.16;5038488;28;46007;-62
2022/05/03 11:01:53;;;;;;;;;13.75;13.25;;;;;27.32;34.19;101262.63;5014999;28;48443;-62
2022/05/03 11:04:19;;;;;;;;;20.00;18.25;;;;;27.82;34.26;101263.22;5039615;28;45336;-62
2022/05/03 11:06:47;;;;;;;;;14.25;13.25;;;;;28.33;33.92;101261.06;5039745;28;45443;-61
2022/05/03 11:09:15;;;;;;;;;18.50;16.75;;;;;28.81;33.71;101263.41;5039484;28;45590;-61
2022/05/03 11:11:50;;;;;;;;;15.25;14.75;;;;;29.26;33.89;101261.47;5039440;28;46067;-62
2022/05/03 11:14:18;;;;;;;;;16.75;15.50;;;;;29.63;33.12;101264.59;5039270;28;45336;-62
2022/05/03 11:17:08;;;;;;;;;16.50;16.50;;;;;29.94;32.43;101261.94;5039537;28;45301;-62
2022/05/03 11:19:49;;;;;;;;;14.25;13.50;;;;;30.29;32.05;101262.50;5039424;28;45487;-62
2022/05/03 11:22:16;;;;;;;;;16.00;16.00;;;;;30.67;32.32;101257.31;5046081;28;46189;-62
2022/05/03 11:24:44;;;;;;;;;17.00;14.00;;;;;31.00;31.52;101247.06;5059509;28;45479;-62
2022/05/03 11:27:11;;;;;;;;;15.00;13.50;;;;;31.27;31.47;101249.03;5059723;28;45322;-62
2022/05/03 11:29:48;;;;;;;;;15.00;15.00;;;;;31.57;31.74;101266.13;5059656;28;45317;-62
2022/05/03 11:32:16;;;;;;;;;18.00;14.50;;;;;31.76;30.71;101255.25;5041277;28;46272;-62
2022/05/03 11:34:42;;;;;;;;;17.50;16.50;;;;;31.92;30.85;101245.59;5059329;28;45205;-62
2022/05/03 11:37:08;;;;;;;;;13.00;12.75;;;;;32.12;30.52;101246.38;5059630;28;45267;-62
2022/05/03 11:39:37;;;;;;;;;16.00;14.50;;;;;32.41;29.96;101248.09;5059192;28;45336;-62
2022/05/03 11:42:10;;;;;;;;;12.50;12.50;;;;;32.76;30.17;101237.44;5059273;28;45439;-62
2022/05/03 11:44:40;;;;;;;;;18.25;16.25;;;;;33.15;30.45;101237.91;5057623;28;45332;-61
2022/05/03 11:47:09;;;;;;;;;15.75;15.75;;;;;33.46;29.89;101236.63;5059440;28;45257;-61
2022/05/03 11:49:36;;;;;;;;;12.00;11.00;;;;;33.70;29.77;101228.59;5059029;28;45347;-62
2022/05/03 11:57:42;;;;;;;;;17.25;17.25;;;;;34.52;28.92;101235.44;5055421;28;45419;-62